Portada
METAR-TAF:

METAR-TAF

Aeropuertos :

Cascaes, Portugal

latitud: 38-43-32N, longitud: 009-21-19W, altitud: 99 m

Observación

El informe se hizo hace 38 minutos, a las 06:30 UTC
Viento 5 kt del este-noreste
Temperatura 16°C
Humedad 72%
Presión 1018 hPa
Visibilidad 10 km o más
sin nubes por debajo de 1500 m y sin presencia de cumulonimbus.

METAR: LPCS 250630Z 06005KT CAVOK 16/11 Q1018

Hora: 08:08 (07:08 UTC)

Pronóstico

El informe se hizo hace 38 minutos, a las 06:30 UTC
Pronóstico válido del 25 a las 06 UTC al 25 a las 15 UTC
Viento 8 kt del noreste
Visibilidad 10 km o más
sin nubes por debajo de 1500 m y sin presencia de cumulonimbus.
Evolucionando progresivamente
del 25 a las 11 UTC al 25 a las 13 UTC
Viento 15 kt del norte-noroeste
Temporalmente
del 25 a las 13 UTC al 25 a las 15 UTC
Viento 20 kt del norte-noroeste con ráfagas de 30 kt

TAF: LPCS 250630Z 2506/2515 04008KT CAVOK BECMG 2511/2513 34015KT TEMPO 2513/2515 34020G30KT

Observaciones y pronósticos meteorológicos de más de 4000 aeropuertos (mensajes METAR y TAF).

Los puntos amarillos y rojos representan las estaciones disponibles.

Ponga el ratón en el punto deseado para ver el nombre de la estación.

Haga clic para ver las observaciones y los pronósticos meteorológicos.

Para cambiar el mapa : haga clic en los botones verdes con una cruz de color negro para hacer un zoom, en el botón verde con un guión para alejar o en las flechas verdes para mapas adyacentes.


METAR-TAF: